sensor_id;sensor_type;location;lat;lon;timestamp;P1;durP1;ratioP1;P2;durP2;ratioP2
64157;SDS011;50449;51.528;5.076;2023-05-23T00:00:34;91.88;;;86.47;;
64157;SDS011;50449;51.528;5.076;2023-05-23T00:03:00;88.38;;;83.63;;
64157;SDS011;50449;51.528;5.076;2023-05-23T00:05:26;86.43;;;81.72;;
64157;SDS011;50449;51.528;5.076;2023-05-23T00:07:53;88.93;;;84.00;;
64157;SDS011;50449;51.528;5.076;2023-05-23T00:10:18;91.60;;;86.32;;
64157;SDS011;50449;51.528;5.076;2023-05-23T00:12:44;85.72;;;81.32;;
64157;SDS011;50449;51.528;5.076;2023-05-23T00:15:12;87.13;;;81.95;;
64157;SDS011;50449;51.528;5.076;2023-05-23T00:17:38;86.22;;;81.50;;
64157;SDS011;50449;51.528;5.076;2023-05-23T00:20:04;82.72;;;78.63;;
64157;SDS011;50449;51.528;5.076;2023-05-23T00:22:30;88.25;;;83.45;;
64157;SDS011;50449;51.528;5.076;2023-05-23T00:24:55;81.82;;;78.05;;
64157;SDS011;50449;51.528;5.076;2023-05-23T00:27:22;81.47;;;77.63;;
64157;SDS011;50449;51.528;5.076;2023-05-23T00:29:47;84.40;;;80.15;;
64157;SDS011;50449;51.528;5.076;2023-05-23T00:32:13;82.13;;;78.20;;
64157;SDS011;50449;51.528;5.076;2023-05-23T00:34:38;81.80;;;77.90;;
64157;SDS011;50449;51.528;5.076;2023-05-23T00:37:04;80.93;;;76.90;;
64157;SDS011;50449;51.528;5.076;2023-05-23T00:39:29;79.97;;;75.82;;
64157;SDS011;50449;51.528;5.076;2023-05-23T00:41:55;81.35;;;77.35;;
64157;SDS011;50449;51.528;5.076;2023-05-23T00:44:21;80.22;;;75.93;;
64157;SDS011;50449;51.528;5.076;2023-05-23T00:46:48;83.03;;;78.82;;
64157;SDS011;50449;51.528;5.076;2023-05-23T00:49:17;78.28;;;74.68;;
64157;SDS011;50449;51.528;5.076;2023-05-23T00:51:44;83.03;;;78.50;;
64157;SDS011;50449;51.528;5.076;2023-05-23T00:54:10;77.10;;;73.50;;
64157;SDS011;50449;51.528;5.076;2023-05-23T00:56:37;78.97;;;75.07;;
64157;SDS011;50449;51.528;5.076;2023-05-23T00:59:03;74.65;;;70.85;;
64157;SDS011;50449;51.528;5.076;2023-05-23T01:01:29;76.43;;;72.82;;
64157;SDS011;50449;51.528;5.076;2023-05-23T01:03:55;79.07;;;75.18;;
64157;SDS011;50449;51.528;5.076;2023-05-23T01:06:22;81.75;;;76.70;;
64157;SDS011;50449;51.528;5.076;2023-05-23T01:08:47;78.72;;;74.45;;
64157;SDS011;50449;51.528;5.076;2023-05-23T01:11:19;78.55;;;74.30;;
64157;SDS011;50449;51.528;5.076;2023-05-23T01:16:47;75.45;;;71.47;;
64157;SDS011;50449;51.528;5.076;2023-05-23T01:21:56;78.55;;;74.10;;
64157;SDS011;50449;51.528;5.076;2023-05-23T01:29:44;81.50;;;75.70;;
64157;SDS011;50449;51.528;5.076;2023-05-23T01:32:11;76.47;;;72.40;;
64157;SDS011;50449;51.528;5.076;2023-05-23T01:34:38;81.47;;;76.68;;
64157;SDS011;50449;51.528;5.076;2023-05-23T01:37:07;74.70;;;71.28;;
64157;SDS011;50449;51.528;5.076;2023-05-23T01:39:38;78.47;;;74.20;;
64157;SDS011;50449;51.528;5.076;2023-05-23T01:42:04;76.70;;;72.88;;
64157;SDS011;50449;51.528;5.076;2023-05-23T01:44:30;76.85;;;72.72;;
64157;SDS011;50449;51.528;5.076;2023-05-23T01:46:58;77.57;;;73.53;;
64157;SDS011;50449;51.528;5.076;2023-05-23T01:49:25;72.85;;;69.53;;
64157;SDS011;50449;51.528;5.076;2023-05-23T01:51:50;74.78;;;71.05;;
64157;SDS011;50449;51.528;5.076;2023-05-23T01:54:16;75.55;;;71.97;;
64157;SDS011;50449;51.528;5.076;2023-05-23T01:56:43;78.68;;;74.43;;
64157;SDS011;50449;51.528;5.076;2023-05-23T01:59:09;76.78;;;72.80;;
64157;SDS011;50449;51.528;5.076;2023-05-23T02:01:36;76.63;;;72.53;;
64157;SDS011;50449;51.528;5.076;2023-05-23T02:04:02;76.82;;;72.72;;
64157;SDS011;50449;51.528;5.076;2023-05-23T02:06:28;74.72;;;71.00;;
64157;SDS011;50449;51.528;5.076;2023-05-23T02:08:53;76.45;;;72.30;;
64157;SDS011;50449;51.528;5.076;2023-05-23T02:11:18;71.75;;;68.10;;
64157;SDS011;50449;51.528;5.076;2023-05-23T02:13:44;74.50;;;70.93;;
64157;SDS011;50449;51.528;5.076;2023-05-23T02:16:09;75.22;;;71.05;;
64157;SDS011;50449;51.528;5.076;2023-05-23T02:18:35;75.95;;;71.63;;
64157;SDS011;50449;51.528;5.076;2023-05-23T02:21:03;72.40;;;68.43;;
64157;SDS011;50449;51.528;5.076;2023-05-23T02:23:29;75.00;;;70.68;;
64157;SDS011;50449;51.528;5.076;2023-05-23T02:25:54;75.28;;;71.10;;
64157;SDS011;50449;51.528;5.076;2023-05-23T02:28:20;72.65;;;68.70;;
64157;SDS011;50449;51.528;5.076;2023-05-23T02:30:45;75.57;;;71.32;;
64157;SDS011;50449;51.528;5.076;2023-05-23T02:33:10;74.22;;;70.45;;
64157;SDS011;50449;51.528;5.076;2023-05-23T02:35:36;69.63;;;65.85;;
64157;SDS011;50449;51.528;5.076;2023-05-23T02:38:01;73.40;;;69.30;;
64157;SDS011;50449;51.528;5.076;2023-05-23T02:40:27;71.30;;;67.55;;
64157;SDS011;50449;51.528;5.076;2023-05-23T02:42:52;74.22;;;70.45;;
64157;SDS011;50449;51.528;5.076;2023-05-23T02:45:21;70.40;;;66.90;;
64157;SDS011;50449;51.528;5.076;2023-05-23T02:47:46;71.82;;;68.25;;
64157;SDS011;50449;51.528;5.076;2023-05-23T02:50:12;69.47;;;66.20;;
64157;SDS011;50449;51.528;5.076;2023-05-23T02:52:37;69.15;;;65.22;;
64157;SDS011;50449;51.528;5.076;2023-05-23T02:55:02;70.90;;;67.40;;
64157;SDS011;50449;51.528;5.076;2023-05-23T02:57:28;76.53;;;72.55;;
64157;SDS011;50449;51.528;5.076;2023-05-23T02:59:53;70.28;;;67.00;;
64157;SDS011;50449;51.528;5.076;2023-05-23T03:02:19;72.07;;;68.43;;
64157;SDS011;50449;51.528;5.076;2023-05-23T03:04:45;70.22;;;66.80;;
64157;SDS011;50449;51.528;5.076;2023-05-23T03:07:11;69.68;;;66.15;;
64157;SDS011;50449;51.528;5.076;2023-05-23T03:09:37;70.68;;;67.13;;
64157;SDS011;50449;51.528;5.076;2023-05-23T03:12:03;69.88;;;66.20;;
64157;SDS011;50449;51.528;5.076;2023-05-23T03:14:29;67.88;;;64.50;;
64157;SDS011;50449;51.528;5.076;2023-05-23T03:16:54;73.05;;;69.03;;
64157;SDS011;50449;51.528;5.076;2023-05-23T03:19:20;65.72;;;62.63;;
64157;SDS011;50449;51.528;5.076;2023-05-23T03:21:45;69.57;;;66.20;;
64157;SDS011;50449;51.528;5.076;2023-05-23T03:24:11;69.32;;;65.75;;
64157;SDS011;50449;51.528;5.076;2023-05-23T03:26:36;67.60;;;64.00;;
64157;SDS011;50449;51.528;5.076;2023-05-23T03:29:02;69.38;;;66.00;;
64157;SDS011;50449;51.528;5.076;2023-05-23T03:31:27;68.95;;;65.55;;
64157;SDS011;50449;51.528;5.076;2023-05-23T03:33:52;69.28;;;65.78;;
64157;SDS011;50449;51.528;5.076;2023-05-23T03:36:18;71.30;;;67.45;;
64157;SDS011;50449;51.528;5.076;2023-05-23T03:38:43;68.30;;;64.82;;
64157;SDS011;50449;51.528;5.076;2023-05-23T03:41:08;71.90;;;68.28;;
64157;SDS011;50449;51.528;5.076;2023-05-23T03:43:34;69.38;;;65.30;;
64157;SDS011;50449;51.528;5.076;2023-05-23T03:45:59;69.00;;;65.40;;
64157;SDS011;50449;51.528;5.076;2023-05-23T03:48:25;70.07;;;65.88;;
64157;SDS011;50449;51.528;5.076;2023-05-23T03:50:50;69.70;;;65.35;;
64157;SDS011;50449;51.528;5.076;2023-05-23T03:53:16;66.47;;;62.90;;
64157;SDS011;50449;51.528;5.076;2023-05-23T03:55:41;71.03;;;66.68;;
64157;SDS011;50449;51.528;5.076;2023-05-23T03:58:06;69.07;;;65.10;;
64157;SDS011;50449;51.528;5.076;2023-05-23T04:00:32;68.05;;;64.35;;
64157;SDS011;50449;51.528;5.076;2023-05-23T04:02:57;68.78;;;65.28;;
64157;SDS011;50449;51.528;5.076;2023-05-23T04:05:23;68.50;;;64.50;;
64157;SDS011;50449;51.528;5.076;2023-05-23T04:07:48;70.85;;;66.85;;
64157;SDS011;50449;51.528;5.076;2023-05-23T04:10:15;67.78;;;64.25;;
64157;SDS011;50449;51.528;5.076;2023-05-23T04:12:40;70.68;;;66.40;;
64157;SDS011;50449;51.528;5.076;2023-05-23T04:15:07;68.47;;;64.80;;
64157;SDS011;50449;51.528;5.076;2023-05-23T04:17:32;69.80;;;65.72;;
64157;SDS011;50449;51.528;5.076;2023-05-23T04:19:59;69.35;;;65.55;;
64157;SDS011;50449;51.528;5.076;2023-05-23T04:22:24;68.82;;;64.97;;
64157;SDS011;50449;51.528;5.076;2023-05-23T04:24:50;66.28;;;62.65;;
64157;SDS011;50449;51.528;5.076;2023-05-23T04:27:15;65.95;;;62.00;;
64157;SDS011;50449;51.528;5.076;2023-05-23T04:29:41;67.70;;;64.20;;
64157;SDS011;50449;51.528;5.076;2023-05-23T04:32:06;69.93;;;65.70;;
64157;SDS011;50449;51.528;5.076;2023-05-23T04:34:32;68.43;;;64.47;;
64157;SDS011;50449;51.528;5.076;2023-05-23T04:37:01;69.22;;;64.82;;
64157;SDS011;50449;51.528;5.076;2023-05-23T04:39:27;68.63;;;64.90;;
64157;SDS011;50449;51.528;5.076;2023-05-23T04:41:54;65.93;;;62.47;;
64157;SDS011;50449;51.528;5.076;2023-05-23T04:44:20;67.35;;;63.58;;
64157;SDS011;50449;51.528;5.076;2023-05-23T04:46:46;66.15;;;62.95;;
64157;SDS011;50449;51.528;5.076;2023-05-23T04:49:12;69.93;;;65.70;;
64157;SDS011;50449;51.528;5.076;2023-05-23T04:51:38;66.72;;;63.30;;
64157;SDS011;50449;51.528;5.076;2023-05-23T04:54:03;69.78;;;65.28;;
64157;SDS011;50449;51.528;5.076;2023-05-23T04:56:29;68.63;;;64.20;;
64157;SDS011;50449;51.528;5.076;2023-05-23T04:58:55;67.60;;;63.60;;
64157;SDS011;50449;51.528;5.076;2023-05-23T05:01:21;65.15;;;61.75;;
64157;SDS011;50449;51.528;5.076;2023-05-23T05:03:50;65.75;;;61.53;;
64157;SDS011;50449;51.528;5.076;2023-05-23T05:06:16;65.38;;;61.42;;
64157;SDS011;50449;51.528;5.076;2023-05-23T05:08:42;65.05;;;61.28;;
64157;SDS011;50449;51.528;5.076;2023-05-23T05:11:08;65.72;;;62.33;;
64157;SDS011;50449;51.528;5.076;2023-05-23T05:13:34;66.43;;;62.78;;
64157;SDS011;50449;51.528;5.076;2023-05-23T05:15:59;65.88;;;62.03;;
64157;SDS011;50449;51.528;5.076;2023-05-23T05:18:25;64.30;;;60.63;;
64157;SDS011;50449;51.528;5.076;2023-05-23T05:20:51;64.50;;;60.92;;
64157;SDS011;50449;51.528;5.076;2023-05-23T05:23:16;62.83;;;59.38;;
64157;SDS011;50449;51.528;5.076;2023-05-23T05:25:42;64.32;;;61.03;;
64157;SDS011;50449;51.528;5.076;2023-05-23T05:28:07;62.70;;;59.63;;
64157;SDS011;50449;51.528;5.076;2023-05-23T05:30:33;68.32;;;64.32;;
64157;SDS011;50449;51.528;5.076;2023-05-23T05:33:02;62.38;;;59.25;;
64157;SDS011;50449;51.528;5.076;2023-05-23T05:35:34;63.42;;;60.45;;
64157;SDS011;50449;51.528;5.076;2023-05-23T05:38:00;65.60;;;62.30;;
64157;SDS011;50449;51.528;5.076;2023-05-23T05:40:26;60.25;;;57.03;;
64157;SDS011;50449;51.528;5.076;2023-05-23T05:42:52;62.40;;;58.85;;
64157;SDS011;50449;51.528;5.076;2023-05-23T05:45:17;60.25;;;57.13;;
64157;SDS011;50449;51.528;5.076;2023-05-23T05:47:43;63.58;;;60.58;;
64157;SDS011;50449;51.528;5.076;2023-05-23T05:50:09;61.88;;;58.80;;
64157;SDS011;50449;51.528;5.076;2023-05-23T05:52:35;59.40;;;56.40;;
64157;SDS011;50449;51.528;5.076;2023-05-23T05:55:08;61.85;;;58.45;;
64157;SDS011;50449;51.528;5.076;2023-05-23T05:57:35;64.47;;;60.92;;
64157;SDS011;50449;51.528;5.076;2023-05-23T06:00:04;61.33;;;57.88;;
64157;SDS011;50449;51.528;5.076;2023-05-23T06:02:36;62.03;;;57.95;;
64157;SDS011;50449;51.528;5.076;2023-05-23T06:05:02;62.30;;;59.10;;
64157;SDS011;50449;51.528;5.076;2023-05-23T06:07:28;59.83;;;56.80;;
64157;SDS011;50449;51.528;5.076;2023-05-23T06:09:53;61.53;;;56.65;;
64157;SDS011;50449;51.528;5.076;2023-05-23T06:12:19;61.78;;;58.40;;
64157;SDS011;50449;51.528;5.076;2023-05-23T06:14:44;60.97;;;56.08;;
64157;SDS011;50449;51.528;5.076;2023-05-23T06:17:09;59.95;;;57.10;;
64157;SDS011;50449;51.528;5.076;2023-05-23T06:19:35;59.00;;;56.13;;
64157;SDS011;50449;51.528;5.076;2023-05-23T06:22:02;57.83;;;55.13;;
64157;SDS011;50449;51.528;5.076;2023-05-23T06:24:28;60.17;;;57.17;;
64157;SDS011;50449;51.528;5.076;2023-05-23T06:26:53;58.20;;;55.22;;
64157;SDS011;50449;51.528;5.076;2023-05-23T06:29:18;59.90;;;56.90;;
64157;SDS011;50449;51.528;5.076;2023-05-23T06:31:44;62.97;;;58.97;;
64157;SDS011;50449;51.528;5.076;2023-05-23T06:34:09;59.20;;;56.17;;
64157;SDS011;50449;51.528;5.076;2023-05-23T06:36:35;58.20;;;55.47;;
64157;SDS011;50449;51.528;5.076;2023-05-23T06:39:00;60.47;;;57.55;;
64157;SDS011;50449;51.528;5.076;2023-05-23T06:41:25;59.80;;;56.92;;
64157;SDS011;50449;51.528;5.076;2023-05-23T06:43:51;59.78;;;56.97;;
64157;SDS011;50449;51.528;5.076;2023-05-23T06:46:17;59.55;;;56.75;;
64157;SDS011;50449;51.528;5.076;2023-05-23T06:48:42;59.42;;;55.97;;
64157;SDS011;50449;51.528;5.076;2023-05-23T06:51:07;59.25;;;56.28;;
64157;SDS011;50449;51.528;5.076;2023-05-23T06:53:33;57.33;;;54.53;;
64157;SDS011;50449;51.528;5.076;2023-05-23T06:55:58;59.03;;;55.78;;
64157;SDS011;50449;51.528;5.076;2023-05-23T06:58:24;58.17;;;55.10;;
64157;SDS011;50449;51.528;5.076;2023-05-23T07:00:50;58.33;;;55.58;;
64157;SDS011;50449;51.528;5.076;2023-05-23T07:03:16;61.08;;;57.60;;
64157;SDS011;50449;51.528;5.076;2023-05-23T07:05:41;59.50;;;56.13;;
64157;SDS011;50449;51.528;5.076;2023-05-23T07:08:07;57.35;;;54.50;;
64157;SDS011;50449;51.528;5.076;2023-05-23T07:10:34;59.25;;;55.45;;
64157;SDS011;50449;51.528;5.076;2023-05-23T07:13:00;58.75;;;55.80;;
64157;SDS011;50449;51.528;5.076;2023-05-23T07:15:25;59.22;;;56.00;;
64157;SDS011;50449;51.528;5.076;2023-05-23T07:17:51;58.15;;;55.35;;
64157;SDS011;50449;51.528;5.076;2023-05-23T07:20:16;59.88;;;56.70;;
64157;SDS011;50449;51.528;5.076;2023-05-23T07:22:41;59.20;;;56.05;;
64157;SDS011;50449;51.528;5.076;2023-05-23T07:25:07;57.85;;;54.30;;
64157;SDS011;50449;51.528;5.076;2023-05-23T07:27:33;59.30;;;55.45;;
64157;SDS011;50449;51.528;5.076;2023-05-23T07:29:58;57.20;;;53.60;;
64157;SDS011;50449;51.528;5.076;2023-05-23T07:32:24;55.78;;;52.72;;
64157;SDS011;50449;51.528;5.076;2023-05-23T07:34:49;54.88;;;51.95;;
64157;SDS011;50449;51.528;5.076;2023-05-23T07:37:15;57.55;;;54.35;;
64157;SDS011;50449;51.528;5.076;2023-05-23T07:39:40;55.45;;;52.40;;
64157;SDS011;50449;51.528;5.076;2023-05-23T07:42:05;52.75;;;49.95;;
64157;SDS011;50449;51.528;5.076;2023-05-23T07:44:31;56.58;;;53.33;;
64157;SDS011;50449;51.528;5.076;2023-05-23T07:46:56;53.88;;;51.20;;
64157;SDS011;50449;51.528;5.076;2023-05-23T07:49:22;57.80;;;54.33;;
64157;SDS011;50449;51.528;5.076;2023-05-23T07:51:47;54.00;;;51.20;;
64157;SDS011;50449;51.528;5.076;2023-05-23T07:54:12;53.53;;;50.78;;
64157;SDS011;50449;51.528;5.076;2023-05-23T07:56:38;54.88;;;51.65;;
64157;SDS011;50449;51.528;5.076;2023-05-23T07:59:03;55.95;;;51.90;;
64157;SDS011;50449;51.528;5.076;2023-05-23T08:01:29;57.15;;;53.53;;
64157;SDS011;50449;51.528;5.076;2023-05-23T08:03:55;55.92;;;52.38;;
64157;SDS011;50449;51.528;5.076;2023-05-23T08:06:21;58.42;;;55.30;;
64157;SDS011;50449;51.528;5.076;2023-05-23T08:08:46;58.05;;;54.92;;
64157;SDS011;50449;51.528;5.076;2023-05-23T08:11:12;55.65;;;52.58;;
64157;SDS011;50449;51.528;5.076;2023-05-23T08:13:38;58.20;;;55.00;;
64157;SDS011;50449;51.528;5.076;2023-05-23T08:16:04;54.13;;;51.42;;
64157;SDS011;50449;51.528;5.076;2023-05-23T08:18:30;55.08;;;52.30;;
64157;SDS011;50449;51.528;5.076;2023-05-23T08:20:55;52.80;;;50.10;;
64157;SDS011;50449;51.528;5.076;2023-05-23T08:23:20;54.72;;;52.03;;
64157;SDS011;50449;51.528;5.076;2023-05-23T08:25:46;54.40;;;51.33;;
64157;SDS011;50449;51.528;5.076;2023-05-23T08:28:11;58.35;;;55.00;;
64157;SDS011;50449;51.528;5.076;2023-05-23T08:30:37;57.10;;;54.03;;
64157;SDS011;50449;51.528;5.076;2023-05-23T08:33:02;54.05;;;51.30;;
64157;SDS011;50449;51.528;5.076;2023-05-23T08:35:29;53.42;;;50.80;;
64157;SDS011;50449;51.528;5.076;2023-05-23T08:37:59;53.63;;;50.83;;
64157;SDS011;50449;51.528;5.076;2023-05-23T08:40:25;54.75;;;51.95;;
64157;SDS011;50449;51.528;5.076;2023-05-23T08:42:54;54.13;;;51.17;;
64157;SDS011;50449;51.528;5.076;2023-05-23T08:45:20;56.63;;;53.63;;
64157;SDS011;50449;51.528;5.076;2023-05-23T08:47:45;54.58;;;51.97;;
64157;SDS011;50449;51.528;5.076;2023-05-23T08:50:12;55.55;;;52.78;;
64157;SDS011;50449;51.528;5.076;2023-05-23T08:52:57;57.25;;;54.50;;
64157;SDS011;50449;51.528;5.076;2023-05-23T08:55:23;55.40;;;52.67;;
64157;SDS011;50449;51.528;5.076;2023-05-23T08:57:51;54.63;;;51.15;;
64157;SDS011;50449;51.528;5.076;2023-05-23T09:00:18;55.00;;;52.08;;
64157;SDS011;50449;51.528;5.076;2023-05-23T09:02:44;54.70;;;51.63;;
64157;SDS011;50449;51.528;5.076;2023-05-23T09:05:10;55.35;;;52.45;;
64157;SDS011;50449;51.528;5.076;2023-05-23T09:07:36;57.03;;;54.00;;
64157;SDS011;50449;51.528;5.076;2023-05-23T09:10:02;54.65;;;52.00;;
64157;SDS011;50449;51.528;5.076;2023-05-23T09:12:30;56.20;;;53.20;;
64157;SDS011;50449;51.528;5.076;2023-05-23T09:14:57;54.22;;;51.47;;
64157;SDS011;50449;51.528;5.076;2023-05-23T09:17:23;54.72;;;51.92;;
64157;SDS011;50449;51.528;5.076;2023-05-23T09:19:48;53.67;;;51.08;;
64157;SDS011;50449;51.528;5.076;2023-05-23T09:22:14;53.08;;;50.53;;
64157;SDS011;50449;51.528;5.076;2023-05-23T09:24:39;53.45;;;50.95;;
64157;SDS011;50449;51.528;5.076;2023-05-23T09:27:06;55.00;;;52.28;;
64157;SDS011;50449;51.528;5.076;2023-05-23T09:29:35;56.38;;;53.05;;
64157;SDS011;50449;51.528;5.076;2023-05-23T09:32:09;54.67;;;51.88;;
64157;SDS011;50449;51.528;5.076;2023-05-23T09:34:39;55.33;;;52.63;;
64157;SDS011;50449;51.528;5.076;2023-05-23T09:37:05;53.63;;;50.88;;
64157;SDS011;50449;51.528;5.076;2023-05-23T09:39:31;58.35;;;55.45;;
64157;SDS011;50449;51.528;5.076;2023-05-23T09:42:01;55.58;;;52.72;;
64157;SDS011;50449;51.528;5.076;2023-05-23T09:44:26;58.70;;;55.28;;
64157;SDS011;50449;51.528;5.076;2023-05-23T09:46:52;57.35;;;53.60;;
64157;SDS011;50449;51.528;5.076;2023-05-23T09:49:17;53.78;;;50.17;;
64157;SDS011;50449;51.528;5.076;2023-05-23T09:51:43;53.08;;;50.28;;
64157;SDS011;50449;51.528;5.076;2023-05-23T09:54:20;53.47;;;50.67;;
64157;SDS011;50449;51.528;5.076;2023-05-23T09:56:46;54.78;;;51.58;;
64157;SDS011;50449;51.528;5.076;2023-05-23T09:59:12;54.05;;;51.40;;
64157;SDS011;50449;51.528;5.076;2023-05-23T10:01:44;54.83;;;52.30;;
64157;SDS011;50449;51.528;5.076;2023-05-23T10:04:11;53.63;;;51.13;;
64157;SDS011;50449;51.528;5.076;2023-05-23T10:06:43;55.20;;;52.33;;
64157;SDS011;50449;51.528;5.076;2023-05-23T10:09:17;53.20;;;50.40;;
64157;SDS011;50449;51.528;5.076;2023-05-23T10:14:35;55.15;;;52.30;;
64157;SDS011;50449;51.528;5.076;2023-05-23T10:17:11;55.42;;;51.83;;
64157;SDS011;50449;51.528;5.076;2023-05-23T10:19:43;56.20;;;53.20;;
64157;SDS011;50449;51.528;5.076;2023-05-23T10:22:14;54.33;;;51.03;;
64157;SDS011;50449;51.528;5.076;2023-05-23T10:24:40;56.95;;;53.63;;
64157;SDS011;50449;51.528;5.076;2023-05-23T10:27:10;54.42;;;51.42;;
64157;SDS011;50449;51.528;5.076;2023-05-23T10:29:35;58.97;;;55.53;;
64157;SDS011;50449;51.528;5.076;2023-05-23T10:32:02;54.60;;;52.00;;
64157;SDS011;50449;51.528;5.076;2023-05-23T10:37:39;57.60;;;54.42;;
64157;SDS011;50449;51.528;5.076;2023-05-23T10:40:23;56.92;;;54.22;;
64157;SDS011;50449;51.528;5.076;2023-05-23T10:45:40;60.13;;;57.05;;
64157;SDS011;50449;51.528;5.076;2023-05-23T10:48:20;57.58;;;54.78;;
64157;SDS011;50449;51.528;5.076;2023-05-23T10:50:47;56.28;;;53.28;;
64157;SDS011;50449;51.528;5.076;2023-05-23T10:53:27;58.13;;;55.03;;
64157;SDS011;50449;51.528;5.076;2023-05-23T10:55:54;61.08;;;57.88;;
64157;SDS011;50449;51.528;5.076;2023-05-23T10:58:20;59.17;;;55.85;;
64157;SDS011;50449;51.528;5.076;2023-05-23T11:00:52;60.38;;;57.25;;
64157;SDS011;50449;51.528;5.076;2023-05-23T11:03:53;59.00;;;56.22;;
64157;SDS011;50449;51.528;5.076;2023-05-23T11:09:16;60.17;;;56.47;;
64157;SDS011;50449;51.528;5.076;2023-05-23T11:14:18;60.63;;;57.47;;
64157;SDS011;50449;51.528;5.076;2023-05-23T11:17:16;60.78;;;57.47;;
64157;SDS011;50449;51.528;5.076;2023-05-23T11:20:02;60.25;;;57.30;;
64157;SDS011;50449;51.528;5.076;2023-05-23T11:22:33;63.03;;;59.50;;
64157;SDS011;50449;51.528;5.076;2023-05-23T11:25:00;61.25;;;58.15;;
64157;SDS011;50449;51.528;5.076;2023-05-23T11:27:31;64.65;;;60.95;;
64157;SDS011;50449;51.528;5.076;2023-05-23T11:29:59;60.07;;;57.27;;
64157;SDS011;50449;51.528;5.076;2023-05-23T11:32:26;61.50;;;58.47;;
64157;SDS011;50449;51.528;5.076;2023-05-23T11:34:54;64.45;;;60.80;;
64157;SDS011;50449;51.528;5.076;2023-05-23T11:37:19;65.13;;;61.83;;
64157;SDS011;50449;51.528;5.076;2023-05-23T11:39:47;64.63;;;61.47;;
64157;SDS011;50449;51.528;5.076;2023-05-23T11:42:13;65.85;;;62.03;;
64157;SDS011;50449;51.528;5.076;2023-05-23T11:44:38;66.20;;;62.97;;
64157;SDS011;50449;51.528;5.076;2023-05-23T11:47:04;65.50;;;62.30;;
64157;SDS011;50449;51.528;5.076;2023-05-23T11:49:33;66.13;;;63.13;;
64157;SDS011;50449;51.528;5.076;2023-05-23T11:52:00;65.50;;;62.40;;
64157;SDS011;50449;51.528;5.076;2023-05-23T11:54:27;64.85;;;61.78;;
64157;SDS011;50449;51.528;5.076;2023-05-23T11:56:53;65.30;;;62.30;;
64157;SDS011;50449;51.528;5.076;2023-05-23T11:59:23;69.28;;;65.40;;
64157;SDS011;50449;51.528;5.076;2023-05-23T12:01:50;68.20;;;64.93;;
64157;SDS011;50449;51.528;5.076;2023-05-23T12:04:16;66.28;;;63.25;;
64157;SDS011;50449;51.528;5.076;2023-05-23T12:06:41;69.65;;;66.30;;
64157;SDS011;50449;51.528;5.076;2023-05-23T12:09:07;67.63;;;64.43;;
64157;SDS011;50449;51.528;5.076;2023-05-23T12:11:37;70.25;;;66.35;;
64157;SDS011;50449;51.528;5.076;2023-05-23T12:14:05;68.78;;;65.13;;
64157;SDS011;50449;51.528;5.076;2023-05-23T12:16:32;67.13;;;63.60;;
64157;SDS011;50449;51.528;5.076;2023-05-23T12:18:58;67.32;;;63.97;;
64157;SDS011;50449;51.528;5.076;2023-05-23T12:21:25;67.60;;;63.67;;
64157;SDS011;50449;51.528;5.076;2023-05-23T12:23:51;69.47;;;65.95;;
64157;SDS011;50449;51.528;5.076;2023-05-23T12:26:17;71.40;;;67.97;;
64157;SDS011;50449;51.528;5.076;2023-05-23T12:28:43;69.28;;;65.80;;
64157;SDS011;50449;51.528;5.076;2023-05-23T12:33:46;71.47;;;68.00;;
64157;SDS011;50449;51.528;5.076;2023-05-23T12:36:25;70.47;;;67.18;;
64157;SDS011;50449;51.528;5.076;2023-05-23T12:39:00;69.10;;;65.00;;
64157;SDS011;50449;51.528;5.076;2023-05-23T12:41:26;70.22;;;66.68;;
64157;SDS011;50449;51.528;5.076;2023-05-23T12:43:53;71.60;;;68.05;;
64157;SDS011;50449;51.528;5.076;2023-05-23T12:46:20;71.25;;;67.65;;
64157;SDS011;50449;51.528;5.076;2023-05-23T12:48:46;72.03;;;68.32;;
64157;SDS011;50449;51.528;5.076;2023-05-23T12:51:15;71.45;;;68.15;;
64157;SDS011;50449;51.528;5.076;2023-05-23T12:53:41;73.70;;;70.00;;
64157;SDS011;50449;51.528;5.076;2023-05-23T12:56:07;72.55;;;69.00;;
64157;SDS011;50449;51.528;5.076;2023-05-23T12:58:32;72.40;;;67.95;;
64157;SDS011;50449;51.528;5.076;2023-05-23T13:00:59;75.18;;;71.68;;
64157;SDS011;50449;51.528;5.076;2023-05-23T13:03:25;73.55;;;69.75;;
64157;SDS011;50449;51.528;5.076;2023-05-23T13:05:50;74.00;;;70.43;;
64157;SDS011;50449;51.528;5.076;2023-05-23T13:08:17;74.38;;;70.68;;
64157;SDS011;50449;51.528;5.076;2023-05-23T13:10:44;75.55;;;71.80;;
64157;SDS011;50449;51.528;5.076;2023-05-23T13:13:10;75.28;;;71.60;;
64157;SDS011;50449;51.528;5.076;2023-05-23T13:15:37;74.82;;;71.18;;
64157;SDS011;50449;51.528;5.076;2023-05-23T13:18:02;73.95;;;70.43;;
64157;SDS011;50449;51.528;5.076;2023-05-23T13:20:28;76.97;;;73.07;;
64157;SDS011;50449;51.528;5.076;2023-05-23T13:22:57;75.05;;;71.28;;
64157;SDS011;50449;51.528;5.076;2023-05-23T13:25:23;74.07;;;70.55;;
64157;SDS011;50449;51.528;5.076;2023-05-23T13:27:50;74.07;;;70.53;;
64157;SDS011;50449;51.528;5.076;2023-05-23T13:30:17;75.57;;;72.07;;
64157;SDS011;50449;51.528;5.076;2023-05-23T13:32:43;75.90;;;72.28;;
64157;SDS011;50449;51.528;5.076;2023-05-23T13:35:09;75.90;;;72.28;;
64157;SDS011;50449;51.528;5.076;2023-05-23T13:37:35;75.32;;;71.70;;
64157;SDS011;50449;51.528;5.076;2023-05-23T13:40:01;76.47;;;72.65;;
64157;SDS011;50449;51.528;5.076;2023-05-23T13:42:27;73.88;;;70.28;;
64157;SDS011;50449;51.528;5.076;2023-05-23T13:44:53;77.72;;;74.13;;
64157;SDS011;50449;51.528;5.076;2023-05-23T13:47:19;79.30;;;75.32;;
64157;SDS011;50449;51.528;5.076;2023-05-23T13:49:44;82.20;;;77.72;;
64157;SDS011;50449;51.528;5.076;2023-05-23T13:52:10;77.93;;;74.15;;
64157;SDS011;50449;51.528;5.076;2023-05-23T13:54:36;74.38;;;71.03;;
64157;SDS011;50449;51.528;5.076;2023-05-23T13:57:02;76.70;;;73.07;;
64157;SDS011;50449;51.528;5.076;2023-05-23T13:59:28;77.55;;;73.90;;
64157;SDS011;50449;51.528;5.076;2023-05-23T14:01:53;78.60;;;74.70;;
64157;SDS011;50449;51.528;5.076;2023-05-23T14:04:19;79.05;;;74.38;;
64157;SDS011;50449;51.528;5.076;2023-05-23T14:06:44;78.00;;;74.50;;
64157;SDS011;50449;51.528;5.076;2023-05-23T14:09:10;78.45;;;74.13;;
64157;SDS011;50449;51.528;5.076;2023-05-23T14:11:36;76.07;;;72.72;;
64157;SDS011;50449;51.528;5.076;2023-05-23T14:14:02;79.40;;;75.53;;
64157;SDS011;50449;51.528;5.076;2023-05-23T14:16:27;80.35;;;76.00;;
64157;SDS011;50449;51.528;5.076;2023-05-23T14:18:53;80.40;;;76.28;;
64157;SDS011;50449;51.528;5.076;2023-05-23T14:21:18;81.88;;;77.78;;
64157;SDS011;50449;51.528;5.076;2023-05-23T14:23:45;76.47;;;73.07;;
64157;SDS011;50449;51.528;5.076;2023-05-23T14:26:11;79.43;;;75.03;;
64157;SDS011;50449;51.528;5.076;2023-05-23T14:28:36;82.13;;;77.45;;
64157;SDS011;50449;51.528;5.076;2023-05-23T14:31:01;80.47;;;76.63;;
64157;SDS011;50449;51.528;5.076;2023-05-23T14:33:27;77.22;;;73.47;;
64157;SDS011;50449;51.528;5.076;2023-05-23T14:35:52;81.00;;;76.22;;
64157;SDS011;50449;51.528;5.076;2023-05-23T14:38:18;80.60;;;76.72;;
64157;SDS011;50449;51.528;5.076;2023-05-23T14:40:44;79.70;;;76.07;;
64157;SDS011;50449;51.528;5.076;2023-05-23T14:43:09;80.70;;;77.00;;
64157;SDS011;50449;51.528;5.076;2023-05-23T14:45:35;81.40;;;76.75;;